createdAt,value
2018-10-18T00:00:24.174Z,97822.28
2018-10-18T00:02:54.638Z,97823.94
2018-10-18T00:05:24.605Z,97825.25
2018-10-18T00:07:54.316Z,97820.11
2018-10-18T00:10:24.072Z,97828.21
2018-10-18T00:12:53.738Z,97822.44
2018-10-18T00:15:24.484Z,97824.48
2018-10-18T00:17:54.278Z,97825.15
2018-10-18T00:20:23.964Z,97819.53
2018-10-18T00:22:53.872Z,97817.02
2018-10-18T00:25:23.794Z,97816.53
2018-10-18T00:27:53.719Z,97813.81
2018-10-18T00:30:23.549Z,97815.51
2018-10-18T00:32:53.278Z,97811.78
2018-10-18T00:35:23.613Z,97808.78
2018-10-18T00:37:53.343Z,97811.11
2018-10-18T00:40:23.227Z,97806.25
2018-10-18T00:42:52.969Z,97800.64
2018-10-18T00:45:22.968Z,97800.28
2018-10-18T00:47:52.748Z,97797.19
2018-10-18T00:50:22.589Z,97792.34
2018-10-18T00:52:52.279Z,97787.65
2018-10-18T00:55:22.076Z,97785.51
2018-10-18T00:57:51.776Z,97786.91
2018-10-18T01:00:21.557Z,97788.95
2018-10-18T01:02:51.607Z,97785.89
2018-10-18T01:05:21.808Z,97781.39
2018-10-18T01:07:51.447Z,97779.69
2018-10-18T01:10:21.236Z,97774.70
2018-10-18T01:12:50.999Z,97765.44
2018-10-18T01:15:20.753Z,97768.06
2018-10-18T01:17:50.330Z,97764.72
2018-10-18T01:20:20.118Z,97765.06
2018-10-18T01:22:49.870Z,97758.72
2018-10-18T01:25:19.792Z,97759.30
2018-10-18T01:27:49.536Z,97762.73
2018-10-18T01:30:19.313Z,97762.01
2018-10-18T01:32:49.076Z,97756.42
2018-10-18T01:35:18.814Z,97754.73
2018-10-18T01:37:48.577Z,97759.97
2018-10-18T01:40:18.489Z,97755.66
2018-10-18T01:42:48.217Z,97760.45
2018-10-18T01:45:18.031Z,97754.35
2018-10-18T01:47:47.858Z,97759.48
2018-10-18T01:50:17.755Z,97748.30
2018-10-18T01:52:47.476Z,97754.00
2018-10-18T01:55:17.235Z,97747.08
2018-10-18T01:57:47.131Z,97745.04
2018-10-18T02:00:17.001Z,97747.27
2018-10-18T02:02:46.528Z,97740.00
2018-10-18T02:05:16.470Z,97743.00
2018-10-18T02:07:46.169Z,97737.77
2018-10-18T02:10:15.976Z,97735.70
2018-10-18T02:12:45.698Z,97734.87
2018-10-18T02:15:15.514Z,97730.56
2018-10-18T02:17:45.716Z,97725.91
2018-10-18T02:20:15.448Z,97726.48
2018-10-18T02:22:44.961Z,97723.23
2018-10-18T02:25:14.943Z,97723.33
2018-10-18T02:27:44.500Z,97728.66
2018-10-18T02:30:14.244Z,97718.74
2018-10-18T02:32:43.932Z,97722.03
2018-10-18T02:35:13.720Z,97719.98
2018-10-18T02:37:43.279Z,97723.27
2018-10-18T02:40:13.523Z,97719.45
2018-10-18T02:42:43.289Z,97719.06
2018-10-18T02:45:13.449Z,97722.73
2018-10-18T02:47:43.161Z,97720.11
2018-10-18T02:50:12.889Z,97712.72
2018-10-18T02:52:42.736Z,97709.47
2018-10-18T02:55:12.496Z,97716.36
2018-10-18T02:57:42.358Z,97713.10
2018-10-18T03:00:12.180Z,97718.05
2018-10-18T03:02:41.872Z,97719.83
2018-10-18T03:05:11.794Z,97718.14
2018-10-18T03:07:41.561Z,97722.34
2018-10-18T03:10:11.307Z,97715.43
2018-10-18T03:12:41.745Z,97713.67
2018-10-18T03:15:11.783Z,97717.13
2018-10-18T03:17:41.621Z,97716.73
2018-10-18T03:20:11.659Z,97712.81
2018-10-18T03:22:41.356Z,97712.37
2018-10-18T03:25:12.117Z,97715.43
2018-10-18T03:27:41.836Z,97714.13
2018-10-18T03:30:11.725Z,97707.23
2018-10-18T03:32:41.405Z,97715.91
2018-10-18T03:35:11.250Z,97715.66
2018-10-18T03:37:40.978Z,97719.28
2018-10-18T03:40:12.102Z,97719.77
2018-10-18T03:42:41.939Z,97717.25
2018-10-18T03:45:11.898Z,97716.19
2018-10-18T03:47:41.659Z,97720.02
2018-10-18T03:50:11.616Z,97721.91
2018-10-18T03:52:41.422Z,97715.94
2018-10-18T03:55:11.478Z,97717.25
2018-10-18T03:57:41.245Z,97720.97
2018-10-18T04:00:11.156Z,97720.05
2018-10-18T04:02:41.055Z,97718.36
2018-10-18T04:05:11.527Z,97720.23
2018-10-18T04:07:41.299Z,97717.81
2018-10-18T04:10:11.138Z,97718.93
2018-10-18T04:12:40.824Z,97723.87
2018-10-18T04:15:11.518Z,97718.73
2018-10-18T04:17:41.899Z,97715.92
2018-10-18T04:20:11.682Z,97715.19
2018-10-18T04:22:41.477Z,97717.90
2018-10-18T04:25:11.420Z,97714.00
2018-10-18T04:27:41.240Z,97716.42
2018-10-18T04:30:11.110Z,97722.48
2018-10-18T04:32:41.065Z,97720.70
2018-10-18T04:35:11.161Z,97715.86
2018-10-18T04:37:40.931Z,97719.77
2018-10-18T04:40:10.708Z,97710.92
2018-10-18T04:42:40.446Z,97709.61
2018-10-18T04:45:10.521Z,97710.05
2018-10-18T04:47:40.459Z,97714.45
2018-10-18T04:50:11.060Z,97707.63
2018-10-18T04:52:40.904Z,97704.28
2018-10-18T04:55:10.852Z,97709.70
2018-10-18T04:57:40.587Z,97704.30
2018-10-18T05:00:10.441Z,97710.81
2018-10-18T05:02:40.918Z,97704.83
2018-10-18T05:05:21.400Z,97708.40
2018-10-18T05:07:51.178Z,97705.11
2018-10-18T05:10:21.223Z,97706.06
2018-10-18T05:12:50.824Z,97710.55
2018-10-18T05:15:20.789Z,97708.03
2018-10-18T05:17:50.649Z,97714.66
2018-10-18T05:20:20.603Z,97714.85
2018-10-18T05:22:50.517Z,97715.58
2018-10-18T05:25:21.371Z,97715.88
2018-10-18T05:27:51.174Z,97719.96
2018-10-18T05:30:21.017Z,97725.00
2018-10-18T05:32:50.743Z,97721.28
2018-10-18T05:35:20.731Z,97717.62
2018-10-18T05:37:50.609Z,97715.11
2018-10-18T05:40:20.607Z,97718.74
2018-10-18T05:42:50.677Z,97718.02
2018-10-18T05:45:20.863Z,97718.55
2018-10-18T05:47:50.543Z,97722.28
2018-10-18T05:50:20.289Z,97727.67
2018-10-18T05:52:50.051Z,97729.62
2018-10-18T05:55:20.138Z,97726.72
2018-10-18T05:57:49.947Z,97721.30
2018-10-18T06:00:20.980Z,97732.30
2018-10-18T06:02:50.977Z,97728.18
2018-10-18T06:05:21.085Z,97734.81
2018-10-18T06:07:51.049Z,97731.97
2018-10-18T06:10:32.400Z,97733.94
2018-10-18T06:13:02.312Z,97740.38
2018-10-18T06:15:32.262Z,97741.37
2018-10-18T06:18:02.178Z,97743.34
2018-10-18T06:20:32.100Z,97739.57
2018-10-18T06:23:02.039Z,97741.52
2018-10-18T06:25:32.021Z,97740.84
2018-10-18T06:28:01.803Z,97747.08
2018-10-18T06:30:31.796Z,97745.67
2018-10-18T06:33:01.671Z,97749.20
2018-10-18T06:35:31.700Z,97752.16
2018-10-18T06:38:01.621Z,97752.48
2018-10-18T06:40:31.497Z,97749.72
2018-10-18T06:43:01.340Z,97751.93
2018-10-18T06:45:31.405Z,97751.91
2018-10-18T06:48:01.189Z,97756.16
2018-10-18T06:50:31.126Z,97753.20
2018-10-18T06:53:01.005Z,97746.86
2018-10-18T06:55:30.922Z,97751.72
2018-10-18T06:58:00.761Z,97750.50
2018-10-18T07:00:30.873Z,97754.02
2018-10-18T07:03:00.589Z,97760.16
2018-10-18T07:05:30.509Z,97761.28
2018-10-18T07:08:00.418Z,97762.19
2018-10-18T07:10:30.340Z,97769.64
2018-10-18T07:13:00.377Z,97769.34
2018-10-18T07:15:30.330Z,97769.17
2018-10-18T07:18:00.239Z,97762.80
2018-10-18T07:20:30.229Z,97764.62
2018-10-18T07:23:00.264Z,97769.71
2018-10-18T07:25:30.154Z,97772.65
2018-10-18T07:27:59.998Z,97771.61
2018-10-18T07:30:29.843Z,97769.73
2018-10-18T07:32:59.640Z,97772.63
2018-10-18T07:35:31.063Z,97771.47
2018-10-18T07:38:01.058Z,97769.22
2018-10-18T07:40:31.848Z,97766.48
2018-10-18T07:43:01.895Z,97766.73
2018-10-18T07:45:32.987Z,97771.53
2018-10-18T07:48:03.065Z,97769.04
2018-10-18T07:50:34.422Z,97771.09
2018-10-18T07:53:04.504Z,97768.22
2018-10-18T07:55:35.868Z,97764.17
2018-10-18T07:58:06.543Z,97765.84
2018-10-18T08:00:37.429Z,97762.30
2018-10-18T08:03:07.392Z,97758.34
2018-10-18T08:05:38.770Z,97760.63
2018-10-18T08:08:08.746Z,97758.10
2018-10-18T08:10:39.783Z,97764.77
2018-10-18T08:13:10.292Z,97757.22
2018-10-18T08:15:42.017Z,97758.30
2018-10-18T08:18:12.282Z,97755.03
2018-10-18T08:20:43.180Z,97756.20
2018-10-18T08:23:13.172Z,97757.69
2018-10-18T08:25:44.773Z,97755.11
2018-10-18T08:28:14.820Z,97757.34
2018-10-18T08:30:46.262Z,97754.30
2018-10-18T08:33:16.699Z,97750.28
2018-10-18T08:35:47.630Z,97756.31
2018-10-18T08:38:18.155Z,97754.30
2018-10-18T08:40:48.761Z,97757.41
2018-10-18T08:43:19.008Z,97753.13
2018-10-18T08:45:51.322Z,97750.70
2018-10-18T08:48:21.287Z,97752.50
2018-10-18T08:50:52.040Z,97751.25
2018-10-18T08:53:22.021Z,97750.16
2018-10-18T08:55:54.341Z,97755.70
2018-10-18T08:58:24.121Z,97752.02
2018-10-18T09:00:55.452Z,97749.00
2018-10-18T09:03:25.247Z,97746.73
2018-10-18T09:05:55.609Z,97745.27
2018-10-18T09:08:25.684Z,97748.84
2018-10-18T09:10:55.562Z,97744.27
2018-10-18T09:13:25.539Z,97741.13
2018-10-18T09:15:55.702Z,97744.90
2018-10-18T09:18:25.774Z,97745.77
2018-10-18T09:20:55.804Z,97749.11
2018-10-18T09:23:25.904Z,97743.66
2018-10-18T09:25:55.787Z,97739.97
2018-10-18T09:28:25.861Z,97740.52
2018-10-18T09:30:55.813Z,97740.73
2018-10-18T09:33:25.884Z,97738.03
2018-10-18T09:35:55.816Z,97733.26
2018-10-18T09:38:25.996Z,97737.60
2018-10-18T09:40:55.924Z,97728.34
2018-10-18T09:43:25.988Z,97729.31
2018-10-18T09:45:55.942Z,97724.60
2018-10-18T09:48:25.795Z,97721.55
2018-10-18T09:50:55.872Z,97725.69
2018-10-18T09:53:25.925Z,97723.38
2018-10-18T09:55:55.779Z,97728.75
2018-10-18T09:58:25.718Z,97720.59
2018-10-18T10:01:00.435Z,97723.80
2018-10-18T10:03:30.449Z,97713.98
2018-10-18T10:06:00.423Z,97708.81
2018-10-18T10:08:30.538Z,97706.48
2018-10-18T10:11:00.421Z,97700.88
2018-10-18T10:13:30.661Z,97707.72
2018-10-18T10:16:00.861Z,97706.11
2018-10-18T10:18:30.894Z,97703.28
2018-10-18T10:21:00.989Z,97698.03
2018-10-18T10:23:31.065Z,97691.31
2018-10-18T10:26:01.069Z,97689.78
2018-10-18T10:28:31.304Z,97688.45
2018-10-18T10:31:01.279Z,97679.87
2018-10-18T10:33:31.284Z,97677.72
2018-10-18T10:36:01.077Z,97678.37
2018-10-18T10:38:31.043Z,97680.40
2018-10-18T10:41:00.944Z,97680.41
2018-10-18T10:43:30.851Z,97683.08
2018-10-18T10:46:01.567Z,97674.61
2018-10-18T10:48:31.808Z,97675.94
2018-10-18T10:51:01.816Z,97675.41
2018-10-18T10:53:32.283Z,97674.45
2018-10-18T10:56:02.819Z,97670.94
2018-10-18T10:58:32.841Z,97669.97
2018-10-18T11:01:07.142Z,97672.50
2018-10-18T11:03:38.035Z,97664.48
2018-10-18T11:06:08.113Z,97664.55
2018-10-18T11:08:38.354Z,97657.48
2018-10-18T11:11:09.549Z,97655.34
2018-10-18T11:13:39.725Z,97659.34
2018-10-18T11:16:09.750Z,97657.98
2018-10-18T11:18:40.732Z,97657.47
2018-10-18T11:21:12.259Z,97649.89
2018-10-18T11:23:42.345Z,97649.55
2018-10-18T11:26:12.366Z,97650.89
2018-10-18T11:28:43.087Z,97648.34
2018-10-18T11:31:13.057Z,97645.70
2018-10-18T11:33:43.136Z,97637.44
2018-10-18T11:36:13.967Z,97632.34
2018-10-18T11:38:43.960Z,97636.07
2018-10-18T11:41:13.871Z,97631.95
2018-10-18T11:43:44.814Z,97625.47
2018-10-18T11:46:14.861Z,97623.13
2018-10-18T11:48:44.944Z,97620.94
2018-10-18T11:51:14.855Z,97618.59
2018-10-18T11:53:44.943Z,97613.98
2018-10-18T11:56:15.002Z,97609.36
2018-10-18T11:58:46.190Z,97614.01
2018-10-18T12:01:16.504Z,97614.13
2018-10-18T12:03:46.646Z,97610.75
2018-10-18T12:06:16.800Z,97611.61
2018-10-18T12:08:46.761Z,97605.15
2018-10-18T12:11:17.368Z,97600.98
2018-10-18T12:13:47.818Z,97594.84
2018-10-18T12:16:17.730Z,97594.22
2018-10-18T12:18:47.790Z,97594.67
2018-10-18T12:21:17.611Z,97593.89
2018-10-18T12:23:48.144Z,97587.05
2018-10-18T12:26:18.342Z,97586.39
2018-10-18T12:28:48.442Z,97585.91
2018-10-18T12:31:18.509Z,97586.86
2018-10-18T12:33:48.653Z,97594.36
2018-10-18T12:36:18.750Z,97579.27
2018-10-18T12:38:48.991Z,97581.94
2018-10-18T12:41:19.085Z,97580.43
2018-10-18T12:43:49.081Z,97576.13
2018-10-18T12:46:18.778Z,97577.59
2018-10-18T12:48:48.902Z,97577.59
2018-10-18T12:51:18.887Z,97575.42
2018-10-18T12:53:49.305Z,97581.56
2018-10-18T12:56:19.337Z,97577.37
2018-10-18T12:58:49.301Z,97564.63
2018-10-18T13:01:19.254Z,97559.55
2018-10-18T13:03:49.256Z,97565.08
2018-10-18T13:06:19.317Z,97567.25
2018-10-18T13:08:49.160Z,97568.12
2018-10-18T13:11:18.977Z,97567.63
2018-10-18T13:13:49.017Z,97569.80
2018-10-18T13:16:18.849Z,97567.48
2018-10-18T13:18:49.798Z,97562.30
2018-10-18T13:21:19.627Z,97560.81
2018-10-18T13:23:49.638Z,97556.80
2018-10-18T13:26:19.732Z,97554.30
2018-10-18T13:28:50.374Z,97561.29
2018-10-18T13:31:20.288Z,97559.81
2018-10-18T13:33:50.417Z,97560.97
2018-10-18T13:36:20.347Z,97563.13
2018-10-18T13:38:50.335Z,97559.77
2018-10-18T13:41:20.204Z,97560.56
2018-10-18T13:43:50.128Z,97566.39
2018-10-18T13:46:20.068Z,97562.06
2018-10-18T13:48:50.044Z,97564.61
2018-10-18T13:51:19.824Z,97565.91
2018-10-18T13:53:50.685Z,97563.00
2018-10-18T13:56:23.486Z,97562.18
2018-10-18T13:58:53.420Z,97566.62
2018-10-18T14:01:23.224Z,97561.44
2018-10-18T14:03:53.145Z,97557.38
2018-10-18T14:06:23.086Z,97558.80
2018-10-18T14:08:52.973Z,97559.11
2018-10-18T14:11:23.004Z,97551.91
2018-10-18T14:13:54.595Z,97554.37
2018-10-18T14:16:24.451Z,97554.22
2018-10-18T14:18:54.358Z,97551.31
2018-10-18T14:21:24.605Z,97549.25
2018-10-18T14:23:54.664Z,97553.39
2018-10-18T14:26:24.572Z,97546.91
2018-10-18T14:28:54.587Z,97554.16
2018-10-18T14:31:24.385Z,97550.78
2018-10-18T14:33:54.508Z,97546.42
2018-10-18T14:36:24.425Z,97550.52
2018-10-18T14:38:54.352Z,97552.86
2018-10-18T14:41:24.163Z,97547.97
2018-10-18T14:43:54.158Z,97543.59
2018-10-18T14:46:23.943Z,97547.80
2018-10-18T14:48:54.683Z,97544.47
2018-10-18T14:51:24.504Z,97538.52
2018-10-18T14:53:54.662Z,97540.98
2018-10-18T14:56:24.504Z,97539.00
2018-10-18T14:58:54.357Z,97537.83
2018-10-18T15:01:24.282Z,97535.81
2018-10-18T15:03:54.204Z,97541.70
2018-10-18T15:06:24.162Z,97544.59
2018-10-18T15:08:54.283Z,97544.82
2018-10-18T15:11:24.225Z,97551.23
2018-10-18T15:13:54.805Z,97548.05
2018-10-18T15:16:24.750Z,97551.60
2018-10-18T15:18:54.748Z,97555.78
2018-10-18T15:21:24.603Z,97554.02
2018-10-18T15:23:54.664Z,97549.17
2018-10-18T15:26:24.604Z,97556.43
2018-10-18T15:28:54.607Z,97561.05
2018-10-18T15:31:24.545Z,97562.59
2018-10-18T15:33:54.446Z,97563.53
2018-10-18T15:36:24.424Z,97563.43
2018-10-18T15:38:54.603Z,97571.72
2018-10-18T15:41:24.353Z,97574.27
2018-10-18T15:43:54.366Z,97567.09
2018-10-18T15:46:24.251Z,97574.83
2018-10-18T15:48:54.313Z,97584.40
2018-10-18T15:51:24.152Z,97582.95
2018-10-18T15:53:54.189Z,97585.47
2018-10-18T15:56:24.122Z,97585.09
2018-10-18T15:58:54.040Z,97587.66
2018-10-18T16:01:23.962Z,97588.82
2018-10-18T16:03:53.942Z,97588.16
2018-10-18T16:06:23.858Z,97590.95
2018-10-18T16:08:53.862Z,97595.84
2018-10-18T16:11:23.998Z,97598.64
2018-10-18T16:13:53.868Z,97599.74
2018-10-18T16:16:23.831Z,97602.50
2018-10-18T16:18:54.842Z,97613.96
2018-10-18T16:21:24.742Z,97619.07
2018-10-18T16:23:54.703Z,97626.10
2018-10-18T16:26:24.691Z,97624.84
2018-10-18T16:28:54.902Z,97623.72
2018-10-18T16:31:24.721Z,97623.94
2018-10-18T16:33:54.703Z,97640.13
2018-10-18T16:36:24.521Z,97640.20
2018-10-18T16:38:54.485Z,97639.69
2018-10-18T16:41:24.640Z,97643.34
2018-10-18T16:43:55.116Z,97635.75
2018-10-18T16:46:24.961Z,97640.80
2018-10-18T16:48:54.927Z,97645.74
2018-10-18T16:51:26.563Z,97649.51
2018-10-18T16:53:56.628Z,97659.59
2018-10-18T16:56:26.662Z,97660.60
2018-10-18T16:58:57.101Z,97663.48
2018-10-18T17:01:27.575Z,97668.41
2018-10-18T17:03:57.568Z,97672.95
2018-10-18T17:06:27.686Z,97676.40
2018-10-18T17:08:57.781Z,97684.63
2018-10-18T17:11:28.192Z,97684.35
2018-10-18T17:13:58.234Z,97690.14
2018-10-18T17:16:28.621Z,97695.57
2018-10-18T17:18:58.741Z,97695.58
2018-10-18T17:21:28.602Z,97694.13
2018-10-18T17:23:58.488Z,97696.20
2018-10-18T17:26:29.902Z,97698.83
2018-10-18T17:28:59.940Z,97704.48
2018-10-18T17:31:29.902Z,97709.52
2018-10-18T17:33:59.983Z,97709.12
2018-10-18T17:36:30.022Z,97705.00
2018-10-18T17:39:00.151Z,97706.59
2018-10-18T17:41:30.141Z,97707.91
2018-10-18T17:44:00.179Z,97710.88
2018-10-18T17:46:29.964Z,97712.27
2018-10-18T17:48:59.783Z,97705.26
2018-10-18T17:51:29.817Z,97706.56
2018-10-18T17:53:59.950Z,97710.11
2018-10-18T17:56:29.901Z,97707.05
2018-10-18T17:58:59.942Z,97710.11
2018-10-18T18:01:30.021Z,97711.80
2018-10-18T18:03:59.962Z,97710.48
2018-10-18T18:06:30.066Z,97716.83
2018-10-18T18:11:31.242Z,97719.31
2018-10-18T18:14:01.164Z,97724.89
2018-10-18T18:16:31.683Z,97726.09
2018-10-18T18:19:02.241Z,97736.83
2018-10-18T18:21:32.121Z,97743.02
2018-10-18T18:24:02.343Z,97747.77
2018-10-18T18:26:44.495Z,97742.19
2018-10-18T18:29:02.170Z,97755.03
2018-10-18T18:31:31.942Z,97749.62
2018-10-18T18:34:03.208Z,97759.25
2018-10-18T18:36:35.663Z,97761.48
2018-10-18T18:39:07.837Z,97762.78
2018-10-18T18:41:37.630Z,97761.56
2018-10-18T18:44:07.731Z,97767.11
2018-10-18T18:46:37.634Z,97764.48
2018-10-18T18:49:08.654Z,97766.63
2018-10-18T18:51:38.763Z,97762.06
2018-10-18T18:54:08.745Z,97768.12
2018-10-18T18:56:38.540Z,97764.20
2018-10-18T18:59:08.475Z,97766.16
2018-10-18T19:01:38.376Z,97767.30
2018-10-18T19:04:08.977Z,97772.80
2018-10-18T19:06:38.934Z,97771.94
2018-10-18T19:09:10.920Z,97776.04
2018-10-18T19:11:41.269Z,97770.25
2018-10-18T19:14:11.367Z,97777.25
2018-10-18T19:16:41.154Z,97777.73
2018-10-18T19:19:11.172Z,97778.27
2018-10-18T19:21:41.394Z,97780.88
2018-10-18T19:24:11.501Z,97780.61
2018-10-18T19:26:41.420Z,97775.48
2018-10-18T19:29:11.334Z,97783.37
2018-10-18T19:31:41.348Z,97791.85
2018-10-18T19:34:11.235Z,97781.70
2018-10-18T19:36:41.347Z,97790.76
2018-10-18T19:39:12.078Z,97784.32
2018-10-18T19:41:41.857Z,97790.13
2018-10-18T19:44:12.628Z,97789.56
2018-10-18T19:46:42.519Z,97798.35
2018-10-18T19:49:13.793Z,97798.23
2018-10-18T19:51:44.267Z,97797.67
2018-10-18T19:54:16.241Z,97800.46
2018-10-18T19:56:46.165Z,97803.81
2018-10-18T19:59:17.631Z,97808.64
2018-10-18T20:01:47.625Z,97808.91
2018-10-18T20:04:19.787Z,97809.30
2018-10-18T20:06:49.765Z,97813.87
2018-10-18T20:09:21.058Z,97822.88
2018-10-18T20:11:50.875Z,97825.78
2018-10-18T20:14:21.672Z,97826.69
2018-10-18T20:16:51.627Z,97820.84
2018-10-18T20:19:23.181Z,97826.06
2018-10-18T20:21:53.057Z,97829.50
2018-10-18T20:24:24.123Z,97829.16
2018-10-18T20:26:53.973Z,97832.27
2018-10-18T20:29:25.388Z,97838.75
2018-10-18T20:31:55.308Z,97843.02
2018-10-18T20:34:26.194Z,97839.41
2018-10-18T20:36:55.943Z,97850.20
2018-10-18T20:39:27.128Z,97848.06
2018-10-18T20:41:56.995Z,97848.71
2018-10-18T20:44:28.575Z,97851.88
2018-10-18T20:46:58.894Z,97851.88
2018-10-18T20:49:29.896Z,97857.45
2018-10-18T20:52:00.113Z,97851.36
2018-10-18T20:54:31.422Z,97856.06
2018-10-18T20:57:01.164Z,97853.97
2018-10-18T20:59:32.796Z,97855.92
2018-10-18T21:02:02.655Z,97855.18
2018-10-18T21:04:32.459Z,97852.95
2018-10-18T21:07:02.498Z,97847.34
2018-10-18T21:09:32.274Z,97853.88
2018-10-18T21:12:02.165Z,97853.40
2018-10-18T21:14:32.009Z,97848.48
2018-10-18T21:17:02.274Z,97849.61
2018-10-18T21:19:31.972Z,97849.70
2018-10-18T21:22:01.852Z,97850.52
2018-10-18T21:24:31.500Z,97852.63
2018-10-18T21:27:01.923Z,97845.88
2018-10-18T21:29:31.696Z,97848.06
2018-10-18T21:32:01.722Z,97848.70
2018-10-18T21:34:31.534Z,97855.09
2018-10-18T21:37:01.353Z,97847.59
2018-10-18T21:39:35.026Z,97854.36
2018-10-18T21:42:05.965Z,97852.28
2018-10-18T21:44:37.025Z,97853.67
2018-10-18T21:47:07.414Z,97857.00
2018-10-18T21:49:37.111Z,97860.01
2018-10-18T21:52:06.998Z,97869.29
2018-10-18T21:54:36.945Z,97868.85
2018-10-18T21:57:07.673Z,97872.88
2018-10-18T21:59:37.438Z,97873.86
2018-10-18T22:02:07.432Z,97873.31
2018-10-18T22:04:37.265Z,97869.98
2018-10-18T22:07:07.082Z,97875.34
2018-10-18T22:09:37.071Z,97872.52
2018-10-18T22:12:07.093Z,97876.52
2018-10-18T22:14:36.929Z,97869.36
2018-10-18T22:17:07.745Z,97874.73
2018-10-18T22:19:37.692Z,97882.39
2018-10-18T22:22:07.787Z,97890.37
2018-10-18T22:24:37.585Z,97887.22
2018-10-18T22:27:07.661Z,97891.13
2018-10-18T22:29:37.419Z,97887.09
2018-10-18T22:32:07.326Z,97891.31
2018-10-18T22:34:37.229Z,97887.80
2018-10-18T22:37:07.396Z,97885.81
2018-10-18T22:39:37.248Z,97897.14
2018-10-18T22:42:07.823Z,97893.16
2018-10-18T22:44:37.576Z,97897.06
2018-10-18T22:47:07.327Z,97893.23
2018-10-18T22:49:37.100Z,97886.96
2018-10-18T22:52:07.113Z,97893.68
2018-10-18T22:54:36.935Z,97889.54
2018-10-18T22:57:07.029Z,97888.83
2018-10-18T22:59:36.860Z,97886.59
2018-10-18T23:02:07.310Z,97882.95
2018-10-18T23:04:37.071Z,97886.17
2018-10-18T23:07:08.057Z,97882.36
2018-10-18T23:09:37.831Z,97890.44
2018-10-18T23:12:08.445Z,97884.42
2018-10-18T23:14:38.186Z,97865.30
2018-10-18T23:17:08.421Z,97874.84
2018-10-18T23:19:38.152Z,97874.77
2018-10-18T23:22:09.812Z,97879.73
2018-10-18T23:24:40.630Z,97878.03
2018-10-18T23:27:10.568Z,97879.54
2018-10-18T23:29:40.914Z,97870.66
2018-10-18T23:32:10.720Z,97881.37
2018-10-18T23:34:40.453Z,97870.08
2018-10-18T23:37:10.507Z,97883.70
2018-10-18T23:39:40.296Z,97879.79
2018-10-18T23:42:10.030Z,97887.97
2018-10-18T23:44:39.802Z,97872.41
2018-10-18T23:47:09.679Z,97880.45
2018-10-18T23:49:39.466Z,97878.90
2018-10-18T23:52:09.274Z,97879.00
2018-10-18T23:54:39.693Z,97871.58
2018-10-18T23:57:09.703Z,97880.13
2018-10-18T23:59:39.487Z,97868.87
